createdAt,value
2022-09-12T00:01:27.700Z,9.67
2022-09-12T00:03:55.288Z,9.62
2022-09-12T00:06:23.434Z,9.45
2022-09-12T00:08:50.479Z,9.49
2022-09-12T00:11:16.822Z,9.51
2022-09-12T00:13:43.865Z,9.37
2022-09-12T00:16:17.909Z,9.28
2022-09-12T00:18:46.233Z,9.36
2022-09-12T00:21:13.355Z,9.40
2022-09-12T00:23:39.778Z,9.30
2022-09-12T00:26:06.684Z,9.35
2022-09-12T00:28:33.756Z,9.17
2022-09-12T00:31:00.211Z,9.21
2022-09-12T00:33:26.528Z,9.20
2022-09-12T00:35:53.017Z,9.20
2022-09-12T00:38:20.396Z,9.20
2022-09-12T00:40:46.950Z,9.20
2022-09-12T00:43:14.999Z,9.18
2022-09-12T00:45:42.564Z,9.10
2022-09-12T00:48:17.006Z,9.14
2022-09-12T00:50:43.384Z,9.13
2022-09-12T00:53:09.982Z,9.09
2022-09-12T00:55:37.710Z,8.98
2022-09-12T00:58:09.043Z,8.90
2022-09-12T01:00:35.811Z,8.84
2022-09-12T01:03:05.708Z,9.00
2022-09-12T01:05:34.326Z,9.05
2022-09-12T01:08:01.483Z,9.02
2022-09-12T01:10:27.941Z,8.99
2022-09-12T01:12:54.275Z,9.03
2022-09-12T01:15:20.647Z,9.02
2022-09-12T01:17:56.226Z,8.98
2022-09-12T01:20:41.423Z,8.95
2022-09-12T01:23:26.331Z,8.91
2022-09-12T01:26:18.274Z,8.92
2022-09-12T01:29:03.486Z,8.65
2022-09-12T01:31:35.022Z,8.66
2022-09-12T01:34:07.504Z,8.77
2022-09-12T01:36:41.079Z,8.78
2022-09-12T01:39:27.683Z,8.83
2022-09-12T01:42:10.118Z,8.82
2022-09-12T01:44:48.107Z,8.79
2022-09-12T01:47:19.790Z,8.80
2022-09-12T01:49:52.084Z,8.80
2022-09-12T01:52:23.033Z,8.79
2022-09-12T01:54:53.321Z,8.72
2022-09-12T01:57:24.992Z,8.72
2022-09-12T01:59:54.697Z,8.65
2022-09-12T02:02:23.991Z,8.69
2022-09-12T02:04:53.174Z,8.66
2022-09-12T02:07:39.783Z,8.66
2022-09-12T02:10:09.850Z,8.65
2022-09-12T02:12:44.193Z,8.64
2022-09-12T02:15:12.267Z,8.69
2022-09-12T02:17:42.419Z,8.68
2022-09-12T02:20:17.768Z,8.67
2022-09-12T02:22:58.036Z,8.57
2022-09-12T02:25:25.382Z,8.51
2022-09-12T02:28:21.627Z,8.38
2022-09-12T02:30:56.500Z,8.51
2022-09-12T02:33:38.189Z,8.56
2022-09-12T02:36:13.514Z,8.56
2022-09-12T02:38:46.896Z,8.40
2022-09-12T02:41:16.836Z,8.39
2022-09-12T02:43:43.395Z,8.42
2022-09-12T02:46:13.161Z,8.42
2022-09-12T02:48:42.689Z,8.43
2022-09-12T02:51:09.453Z,8.43
2022-09-12T02:53:36.596Z,8.48
2022-09-12T02:56:05.415Z,8.42
2022-09-12T02:58:32.569Z,8.36
2022-09-12T03:01:17.697Z,8.37
2022-09-12T03:03:54.733Z,8.38
2022-09-12T03:06:35.746Z,8.35
2022-09-12T03:09:07.376Z,8.35
2022-09-12T03:11:34.165Z,8.27
2022-09-12T03:14:22.133Z,8.30
2022-09-12T03:17:08.706Z,8.23
2022-09-12T03:19:41.902Z,8.07
2022-09-12T03:22:08.201Z,8.01
2022-09-12T03:24:34.493Z,8.05
2022-09-12T03:27:14.059Z,8.11
2022-09-12T03:29:41.123Z,8.06
2022-09-12T03:32:07.543Z,8.05
2022-09-12T03:34:33.886Z,8.00
2022-09-12T03:37:00.320Z,8.04
2022-09-12T03:39:26.926Z,8.06
2022-09-12T03:41:53.936Z,8.13
2022-09-12T03:44:20.555Z,8.08
2022-09-12T03:46:47.114Z,8.11
2022-09-12T03:49:13.493Z,8.05
2022-09-12T03:51:40.042Z,8.05
2022-09-12T03:54:06.428Z,8.01
2022-09-12T03:56:32.845Z,8.03
2022-09-12T03:58:59.289Z,8.04
2022-09-12T04:01:25.637Z,8.04
2022-09-12T04:03:52.533Z,8.07
2022-09-12T04:06:20.587Z,8.03
2022-09-12T04:08:51.654Z,8.00
2022-09-12T04:11:18.884Z,7.99
2022-09-12T04:13:45.783Z,7.93
2022-09-12T04:16:12.852Z,7.82
2022-09-12T04:18:39.537Z,7.90
2022-09-12T04:21:06.935Z,7.79
2022-09-12T04:23:33.631Z,7.78
2022-09-12T04:26:00.822Z,7.75
2022-09-12T04:28:29.051Z,7.81
2022-09-12T04:30:55.666Z,7.87
2022-09-12T04:33:22.118Z,7.91
2022-09-12T04:35:48.612Z,7.95
2022-09-12T04:38:15.015Z,7.82
2022-09-12T04:40:41.334Z,7.79
2022-09-12T04:43:11.189Z,7.81
2022-09-12T04:45:40.155Z,7.87
2022-09-12T04:48:06.490Z,7.92
2022-09-12T04:50:33.030Z,7.86
2022-09-12T04:52:59.361Z,7.97
2022-09-12T04:55:26.186Z,8.05
2022-09-12T04:57:53.002Z,8.10
2022-09-12T05:00:19.409Z,8.12
2022-09-12T05:02:46.386Z,8.10
2022-09-12T05:05:12.698Z,8.10
2022-09-12T05:07:39.190Z,8.15
2022-09-12T05:10:05.698Z,8.06
2022-09-12T05:12:32.043Z,8.06
2022-09-12T05:14:58.361Z,8.11
2022-09-12T05:17:24.690Z,8.23
2022-09-12T05:19:51.004Z,8.35
2022-09-12T05:22:17.308Z,8.46
2022-09-12T05:24:58.238Z,8.54
2022-09-12T05:27:24.686Z,8.62
2022-09-12T05:29:51.233Z,8.71
2022-09-12T05:32:17.635Z,8.78
2022-09-12T05:34:44.032Z,8.87
2022-09-12T05:37:10.356Z,8.94
2022-09-12T05:39:36.655Z,9.00
2022-09-12T05:42:03.572Z,9.11
2022-09-12T05:44:29.921Z,9.21
2022-09-12T05:46:56.356Z,9.31
2022-09-12T05:49:22.843Z,9.45
2022-09-12T05:51:53.878Z,9.60
2022-09-12T05:54:21.165Z,9.67
2022-09-12T05:56:47.951Z,9.78
2022-09-12T05:59:19.218Z,9.88
2022-09-12T06:01:46.166Z,10.02
2022-09-12T06:04:12.983Z,10.10
2022-09-12T06:06:41.692Z,10.35
2022-09-12T06:09:08.217Z,10.57
2022-09-12T06:11:37.143Z,10.67
2022-09-12T06:14:03.863Z,10.76
2022-09-12T06:16:31.994Z,10.80
2022-09-12T06:18:59.701Z,11.09
2022-09-12T06:21:27.164Z,11.08
2022-09-12T06:23:54.300Z,11.35
2022-09-12T06:26:23.598Z,11.44
2022-09-12T06:28:50.283Z,11.63
2022-09-12T06:31:18.532Z,11.95
2022-09-12T06:33:46.175Z,12.02
2022-09-12T06:36:14.429Z,12.22
2022-09-12T06:38:40.822Z,12.24
2022-09-12T06:41:11.495Z,12.23
2022-09-12T06:43:38.661Z,12.32
2022-09-12T06:46:05.887Z,12.38
2022-09-12T06:48:32.305Z,12.65
2022-09-12T06:51:02.325Z,12.74
2022-09-12T06:53:30.071Z,12.75
2022-09-12T06:56:00.699Z,12.91
2022-09-12T06:58:27.944Z,12.92
2022-09-12T07:01:02.370Z,13.09
2022-09-12T07:03:29.394Z,13.27
2022-09-12T07:05:55.737Z,13.44
2022-09-12T07:08:22.068Z,13.58
2022-09-12T07:10:48.692Z,13.92
2022-09-12T07:13:15.038Z,13.87
2022-09-12T07:15:41.386Z,13.95
2022-09-12T07:18:09.122Z,13.99
2022-09-12T07:20:37.160Z,14.24
2022-09-12T07:23:03.531Z,14.27
2022-09-12T07:25:29.888Z,14.42
2022-09-12T07:27:56.207Z,14.50
2022-09-12T07:30:23.104Z,14.79
2022-09-12T07:32:53.671Z,14.86
2022-09-12T07:35:20.634Z,15.15
2022-09-12T07:37:47.222Z,15.18
2022-09-12T07:40:13.677Z,15.58
2022-09-12T07:42:40.042Z,15.58
2022-09-12T07:45:07.830Z,15.53
2022-09-12T07:47:34.209Z,15.75
2022-09-12T07:50:00.602Z,15.88
2022-09-12T07:52:27.069Z,15.90
2022-09-12T07:54:53.416Z,15.98
2022-09-12T07:57:19.832Z,16.32
2022-09-12T07:59:53.014Z,16.52
2022-09-12T08:02:20.274Z,16.44
2022-09-12T08:04:47.989Z,16.66
2022-09-12T08:07:14.662Z,16.49
2022-09-12T08:09:40.996Z,16.37
2022-09-12T08:12:07.606Z,16.57
2022-09-12T08:14:33.910Z,16.57
2022-09-12T08:17:00.250Z,16.58
2022-09-12T08:19:26.581Z,16.75
2022-09-12T08:21:52.933Z,16.68
2022-09-12T08:24:19.317Z,17.12
2022-09-12T08:26:45.907Z,17.27
2022-09-12T08:29:12.248Z,17.68
2022-09-12T08:31:38.737Z,17.84
2022-09-12T08:34:05.491Z,17.70
2022-09-12T08:36:32.276Z,17.59
2022-09-12T08:39:04.116Z,17.66
2022-09-12T08:41:39.723Z,17.74
2022-09-12T08:44:24.747Z,17.79
2022-09-12T08:46:57.329Z,17.84
2022-09-12T08:49:35.990Z,18.53
2022-09-12T08:52:13.291Z,18.48
2022-09-12T08:54:39.858Z,18.69
2022-09-12T08:57:09.006Z,18.59
2022-09-12T08:59:38.266Z,18.92
2022-09-12T09:02:15.034Z,19.16
2022-09-12T09:04:51.921Z,19.08
2022-09-12T09:07:45.494Z,19.12
2022-09-12T09:10:18.004Z,19.32
2022-09-12T09:12:58.053Z,19.31
2022-09-12T09:15:34.594Z,19.06
2022-09-12T09:18:19.699Z,19.10
2022-09-12T09:20:51.601Z,19.17
2022-09-12T09:23:30.933Z,19.69
2022-09-12T09:26:11.145Z,19.73
2022-09-12T09:28:42.339Z,20.14
2022-09-12T09:31:15.742Z,19.63
2022-09-12T09:33:42.202Z,19.88
2022-09-12T09:36:20.864Z,19.87
2022-09-12T09:38:47.279Z,19.55
2022-09-12T09:41:19.819Z,19.61
2022-09-12T09:43:46.198Z,19.66
2022-09-12T09:46:14.041Z,20.08
2022-09-12T09:48:42.233Z,19.89
2022-09-12T09:51:09.344Z,19.93
2022-09-12T09:53:54.859Z,20.40
2022-09-12T09:56:33.479Z,20.46
2022-09-12T09:59:13.185Z,20.09
2022-09-12T10:01:46.365Z,19.95
2022-09-12T10:04:20.517Z,20.75
2022-09-12T10:06:47.008Z,20.15
2022-09-12T10:09:26.045Z,20.25
2022-09-12T10:11:52.864Z,20.56
2022-09-12T10:14:28.573Z,21.05
2022-09-12T10:16:55.060Z,20.71
2022-09-12T10:19:25.434Z,20.57
2022-09-12T10:21:53.048Z,20.25
2022-09-12T10:24:23.100Z,20.40
2022-09-12T10:26:56.568Z,20.31
2022-09-12T10:29:25.412Z,20.35
2022-09-12T10:31:54.431Z,20.28
2022-09-12T10:34:34.326Z,20.51
2022-09-12T10:37:17.056Z,20.40
2022-09-12T10:39:50.135Z,20.97
2022-09-12T10:42:36.476Z,20.42
2022-09-12T10:45:02.837Z,20.69
2022-09-12T10:47:30.793Z,20.58
2022-09-12T10:50:22.525Z,20.54
2022-09-12T10:52:49.487Z,20.62
2022-09-12T10:55:15.977Z,20.73
2022-09-12T10:57:45.281Z,21.69
2022-09-12T11:00:17.603Z,21.76
2022-09-12T11:02:50.710Z,21.77
2022-09-12T11:05:36.537Z,21.73
2022-09-12T11:08:17.363Z,21.78
2022-09-12T11:10:54.396Z,21.88
2022-09-12T11:13:45.997Z,22.35
2022-09-12T11:16:31.104Z,21.95
2022-09-12T11:19:10.722Z,22.14
2022-09-12T11:21:55.957Z,22.59
2022-09-12T11:24:31.915Z,22.46
2022-09-12T11:27:08.875Z,22.65
2022-09-12T11:29:47.204Z,22.98
2022-09-12T11:32:32.484Z,21.62
2022-09-12T11:35:15.118Z,21.41
2022-09-12T11:37:55.464Z,21.97
2022-09-12T11:40:34.090Z,21.91
2022-09-12T11:43:05.516Z,20.85
2022-09-12T11:45:39.694Z,21.08
2022-09-12T11:48:08.515Z,21.24
2022-09-12T11:50:34.857Z,21.78
2022-09-12T11:53:27.993Z,22.24
2022-09-12T11:55:59.485Z,22.24
2022-09-12T11:58:27.223Z,22.34
2022-09-12T12:00:56.345Z,22.59
2022-09-12T12:03:43.013Z,21.92
2022-09-12T12:06:21.458Z,21.66
2022-09-12T12:08:49.010Z,21.76
2022-09-12T12:11:24.534Z,21.97
2022-09-12T12:14:14.646Z,22.35
2022-09-12T12:16:41.755Z,22.06
2022-09-12T12:19:22.897Z,22.63
2022-09-12T12:21:50.645Z,22.47
2022-09-12T12:24:21.887Z,22.49
2022-09-12T12:26:58.870Z,23.15
2022-09-12T12:29:31.313Z,23.77
2022-09-12T12:32:03.651Z,23.55
2022-09-12T12:34:36.521Z,24.22
2022-09-12T12:37:21.415Z,23.63
2022-09-12T12:39:55.492Z,24.45
2022-09-12T12:42:30.904Z,24.54
2022-09-12T12:44:57.216Z,26.38
2022-09-12T12:47:25.251Z,25.75
2022-09-12T12:49:53.275Z,25.74
2022-09-12T12:52:19.852Z,25.59
2022-09-12T12:54:46.224Z,25.06
2022-09-12T12:57:17.756Z,25.34
2022-09-12T12:59:47.104Z,25.09
2022-09-12T13:02:19.917Z,24.17
2022-09-12T13:04:46.303Z,24.74
2022-09-12T13:07:22.295Z,26.81
2022-09-12T13:09:52.846Z,27.08
2022-09-12T13:12:27.477Z,25.67
2022-09-12T13:14:55.657Z,25.11
2022-09-12T13:17:26.027Z,24.26
2022-09-12T13:20:16.924Z,23.25
2022-09-12T13:22:45.744Z,23.01
2022-09-12T13:25:21.508Z,23.30
2022-09-12T13:27:58.307Z,23.80
2022-09-12T13:30:25.827Z,24.34
2022-09-12T13:32:52.887Z,25.32
2022-09-12T13:35:21.947Z,25.76
2022-09-12T13:38:06.587Z,26.86
2022-09-12T13:40:32.871Z,29.19
2022-09-12T13:43:12.717Z,28.47
2022-09-12T13:45:39.649Z,28.02
2022-09-12T13:48:10.243Z,27.10
2022-09-12T13:50:42.271Z,26.58
2022-09-12T13:53:16.903Z,26.24
2022-09-12T13:55:47.535Z,25.56
2022-09-12T13:58:22.871Z,25.59
2022-09-12T14:01:03.026Z,25.91
2022-09-12T14:03:49.630Z,26.39
2022-09-12T14:06:16.555Z,25.94
2022-09-12T14:08:43.643Z,26.79
2022-09-12T14:11:10.963Z,26.61
2022-09-12T14:13:39.132Z,27.54
2022-09-12T14:16:09.825Z,26.65
2022-09-12T14:18:37.815Z,25.76
2022-09-12T14:21:10.488Z,26.84
2022-09-12T14:23:41.075Z,25.70
2022-09-12T14:26:09.760Z,26.98
2022-09-12T14:28:37.550Z,28.83
2022-09-12T14:31:06.605Z,29.85
2022-09-12T14:33:34.727Z,29.89
2022-09-12T14:36:10.083Z,29.77
2022-09-12T14:38:47.077Z,30.12
2022-09-12T14:41:20.346Z,28.85
2022-09-12T14:43:47.340Z,28.48
2022-09-12T14:46:24.803Z,26.83
2022-09-12T14:48:57.620Z,27.52
2022-09-12T14:51:29.037Z,29.20
2022-09-12T14:53:55.564Z,28.52
2022-09-12T14:56:36.614Z,26.69
2022-09-12T14:59:21.547Z,25.22
2022-09-12T15:01:47.951Z,23.92
2022-09-12T15:04:34.275Z,23.56
2022-09-12T15:07:13.299Z,23.86
2022-09-12T15:09:43.905Z,23.30
2022-09-12T15:12:12.836Z,22.62
2022-09-12T15:14:39.158Z,22.06
2022-09-12T15:17:05.539Z,22.06
2022-09-12T15:19:31.887Z,22.17
2022-09-12T15:21:58.214Z,21.87
2022-09-12T15:24:24.546Z,21.78
2022-09-12T15:26:50.908Z,21.68
2022-09-12T15:29:17.226Z,21.72
2022-09-12T15:31:46.067Z,21.31
2022-09-12T15:34:12.673Z,20.95
2022-09-12T15:36:39.022Z,21.03
2022-09-12T15:39:05.390Z,21.24
2022-09-12T15:41:32.870Z,21.04
2022-09-12T15:43:59.215Z,21.16
2022-09-12T15:46:25.599Z,21.16
2022-09-12T15:48:51.956Z,21.23
2022-09-12T15:51:19.553Z,20.82
2022-09-12T15:53:46.697Z,20.68
2022-09-12T15:56:14.510Z,20.60
2022-09-12T15:58:57.251Z,20.61
2022-09-12T16:01:24.512Z,20.30
2022-09-12T16:03:50.987Z,20.19
2022-09-12T16:06:17.326Z,20.10
2022-09-12T16:08:43.639Z,20.33
2022-09-12T16:11:26.981Z,20.04
2022-09-12T16:13:53.833Z,19.93
2022-09-12T16:16:20.260Z,19.96
2022-09-12T16:18:46.820Z,19.96
2022-09-12T16:21:15.552Z,19.98
2022-09-12T16:23:43.127Z,20.11
2022-09-12T16:26:09.472Z,19.95
2022-09-12T16:28:35.779Z,19.84
2022-09-12T16:31:06.306Z,19.88
2022-09-12T16:33:33.471Z,19.85
2022-09-12T16:36:18.967Z,20.12
2022-09-12T16:38:46.635Z,20.13
2022-09-12T16:41:13.828Z,19.80
2022-09-12T16:43:40.383Z,19.64
2022-09-12T16:46:08.553Z,19.71
2022-09-12T16:48:34.978Z,19.59
2022-09-12T16:51:02.881Z,19.49
2022-09-12T16:53:33.288Z,19.40
2022-09-12T16:56:00.042Z,19.59
2022-09-12T16:58:26.840Z,19.48
2022-09-12T17:00:59.976Z,19.45
2022-09-12T17:03:26.291Z,19.45
2022-09-12T17:06:02.887Z,19.29
2022-09-12T17:08:29.846Z,19.31
2022-09-12T17:11:03.256Z,19.17
2022-09-12T17:13:46.913Z,19.01
2022-09-12T17:16:16.713Z,19.11
2022-09-12T17:18:43.095Z,19.06
2022-09-12T17:21:10.547Z,19.31
2022-09-12T17:23:37.381Z,18.97
2022-09-12T17:26:03.986Z,18.99
2022-09-12T17:28:30.327Z,18.87
2022-09-12T17:31:01.261Z,18.84
2022-09-12T17:33:28.272Z,18.83
2022-09-12T17:35:54.923Z,18.80
2022-09-12T17:38:25.137Z,18.64
2022-09-12T17:40:59.477Z,18.58
2022-09-12T17:43:26.436Z,18.41
2022-09-12T17:45:57.178Z,18.43
2022-09-12T17:48:23.777Z,18.35
2022-09-12T17:50:50.632Z,18.39
2022-09-12T17:53:17.554Z,18.29
2022-09-12T17:55:43.948Z,18.40
2022-09-12T17:58:10.840Z,18.52
2022-09-12T18:00:55.923Z,18.39
2022-09-12T18:03:23.028Z,18.35
2022-09-12T18:05:52.379Z,18.18
2022-09-12T18:08:19.137Z,18.31
2022-09-12T18:10:45.810Z,18.40
2022-09-12T18:13:12.848Z,18.55
2022-09-12T18:15:39.443Z,18.40
2022-09-12T18:18:06.001Z,18.41
2022-09-12T18:20:32.495Z,18.32
2022-09-12T18:22:59.218Z,18.25
2022-09-12T18:25:25.652Z,18.45
2022-09-12T18:27:52.101Z,18.32
2022-09-12T18:30:21.974Z,18.22
2022-09-12T18:32:48.658Z,18.29
2022-09-12T18:35:15.411Z,18.17
2022-09-12T18:37:42.002Z,18.20
2022-09-12T18:40:09.171Z,18.09
2022-09-12T18:42:35.559Z,18.05
2022-09-12T18:45:01.881Z,18.24
2022-09-12T18:47:28.684Z,18.14
2022-09-12T18:49:55.177Z,18.08
2022-09-12T18:52:21.486Z,18.10
2022-09-12T18:54:47.808Z,17.95
2022-09-12T18:57:14.124Z,17.91
2022-09-12T18:59:40.472Z,18.24
2022-09-12T19:02:07.100Z,18.22
2022-09-12T19:04:33.795Z,18.07
2022-09-12T19:07:01.034Z,18.04
2022-09-12T19:09:27.404Z,17.96
2022-09-12T19:11:53.744Z,17.95
2022-09-12T19:14:22.757Z,17.88
2022-09-12T19:16:50.766Z,18.08
2022-09-12T19:19:17.119Z,17.90
2022-09-12T19:21:43.891Z,17.89
2022-09-12T19:24:10.578Z,17.90
2022-09-12T19:26:37.653Z,18.00
2022-09-12T19:29:04.102Z,17.83
2022-09-12T19:31:31.160Z,17.74
2022-09-12T19:34:01.824Z,17.80
2022-09-12T19:36:44.475Z,17.68
2022-09-12T19:39:12.029Z,17.72
2022-09-12T19:41:38.508Z,17.76
2022-09-12T19:44:05.538Z,17.74
2022-09-12T19:46:32.085Z,17.76
2022-09-12T19:48:58.494Z,17.64
2022-09-12T19:51:25.189Z,17.53
2022-09-12T19:53:51.660Z,17.50
2022-09-12T19:56:18.025Z,17.65
2022-09-12T19:58:45.383Z,17.66
2022-09-12T20:01:16.182Z,17.72
2022-09-12T20:03:42.969Z,17.65
2022-09-12T20:54:13.782Z,17.38
2022-09-12T20:56:40.148Z,17.34
2022-09-12T20:59:06.553Z,17.45
2022-09-12T21:01:33.092Z,17.45
2022-09-12T21:04:00.816Z,17.38
2022-09-12T21:06:27.569Z,17.48
2022-09-12T21:08:58.311Z,17.41
2022-09-12T21:11:24.670Z,17.39
2022-09-12T21:13:51.780Z,17.45
2022-09-12T21:16:19.160Z,17.46
2022-09-12T21:18:45.852Z,17.50
2022-09-12T21:21:13.090Z,17.44
2022-09-12T21:23:39.771Z,17.41
2022-09-12T21:26:06.517Z,17.38
2022-09-12T21:28:33.023Z,17.37
2022-09-12T21:31:00.271Z,17.39
2022-09-12T21:33:26.657Z,17.39
2022-09-12T21:35:53.053Z,17.36
2022-09-12T21:38:20.022Z,17.44
2022-09-12T21:40:47.072Z,17.31
2022-09-12T21:43:13.739Z,17.21
2022-09-12T21:45:40.237Z,17.38
2022-09-12T21:48:06.600Z,17.29
2022-09-12T21:50:32.946Z,17.28
2022-09-12T21:52:59.384Z,17.22
2022-09-12T21:55:27.214Z,17.22
2022-09-12T21:57:53.995Z,17.27
2022-09-12T22:00:20.553Z,17.38
2022-09-12T22:02:47.406Z,17.35
2022-09-12T22:05:13.938Z,17.30
2022-09-12T22:07:40.531Z,17.27
2022-09-12T22:10:07.501Z,17.35
2022-09-12T22:12:34.305Z,17.25
2022-09-12T22:15:12.739Z,17.32
2022-09-12T22:17:44.027Z,17.34
2022-09-12T22:20:10.757Z,17.26
2022-09-12T22:22:55.837Z,17.34
2022-09-12T22:25:24.657Z,17.33
2022-09-12T22:27:51.786Z,17.26
2022-09-12T22:30:18.460Z,17.33
2022-09-12T22:32:44.873Z,17.33
2022-09-12T22:35:11.228Z,17.31
2022-09-12T22:37:37.579Z,17.28
2022-09-12T22:40:04.181Z,17.32
2022-09-12T22:42:31.198Z,17.27
2022-09-12T22:44:57.517Z,17.46
2022-09-12T22:47:23.851Z,17.37
2022-09-12T22:49:50.197Z,17.24
2022-09-12T22:52:16.689Z,17.36
2022-09-12T22:54:43.310Z,17.39
2022-09-12T22:57:09.601Z,17.30
2022-09-12T22:59:35.913Z,17.19
2022-09-12T23:02:02.234Z,17.18
2022-09-12T23:04:28.533Z,17.09
2022-09-12T23:06:54.873Z,17.05
2022-09-12T23:09:21.239Z,16.95
2022-09-12T23:11:47.558Z,16.85
2022-09-12T23:14:13.955Z,16.84
2022-09-12T23:16:40.278Z,16.90
2022-09-12T23:19:06.743Z,16.87
2022-09-12T23:21:33.098Z,16.82
2022-09-12T23:23:59.421Z,16.77
2022-09-12T23:26:28.206Z,16.89
2022-09-12T23:28:55.469Z,16.94
2022-09-12T23:31:23.440Z,16.80
2022-09-12T23:33:52.362Z,16.93
2022-09-12T23:36:18.750Z,17.01
2022-09-12T23:38:46.305Z,17.09
2022-09-12T23:41:14.024Z,16.94
2022-09-12T23:43:40.502Z,16.92
2022-09-12T23:46:07.289Z,16.76
2022-09-12T23:48:34.038Z,16.64
2022-09-12T23:51:00.512Z,16.59
2022-09-12T23:53:27.408Z,16.35
2022-09-12T23:55:53.869Z,16.14
2022-09-12T23:58:22.237Z,16.07
